SAST,Max TemperatureF,Mean TemperatureF,Min TemperatureF,Max Dew PointF,MeanDew PointF,Min DewpointF,Max Humidity, Mean Humidity, Min Humidity, Max Sea Level PressureIn, Mean Sea Level PressureIn, Min Sea Level PressureIn, Max VisibilityMiles, Mean VisibilityMiles, Min VisibilityMiles, Max Wind SpeedMPH, Mean Wind SpeedMPH, Max Gust SpeedMPH,PrecipitationIn, CloudCover, Events, WindDirDegrees
2012-12-1,71,65,59,61,57,54,94,79,62,30.18,29.99,29.80,19,8,4,15,11,,0.04,4,Rain,91
2012-12-2,85,73,61,63,60,59,94,73,34,29.95,29.81,29.74,12,8,6,18,6,,0.02,3,Rain,248
2012-12-3,70,64,58,61,59,57,94,82,65,30.01,29.95,29.92,12,7,6,13,6,,0.00,6,,240
2012-12-4,63,61,57,61,58,52,94,86,64,30.09,29.99,29.95,12,6,2,10,5,,0.04,6,Rain,265
2012-12-5,67,60,52,57,54,50,94,77,67,30.09,30.04,29.98,19,7,5,22,9,33,0.00,5,,86
2012-12-6,73,62,50,61,55,48,94,76,56,30.04,29.94,29.86,19,8,0,9,5,,0.00,2,,166
2012-12-7,76,66,55,64,61,55,94,82,58,30.06,29.99,29.92,12,7,2,12,6,,0.02,5,Rain,216
2012-12-8,73,68,64,64,63,61,100,86,60,30.08,30.04,30.00,12,6,1,13,7,,0.00,6,Rain,126
2012-12-9,73,67,61,63,60,57,94,78,57,30.06,29.97,29.89,12,7,4,21,8,,0.02,4,Rain,114
2012-12-10,71,64,58,64,60,57,94,83,69,30.12,30.02,29.94,12,8,6,18,7,,0.02,5,,128
2012-12-11,73,65,57,63,59,56,94,79,57,30.16,30.12,30.06,19,8,0,17,7,,0.00,4,Fog,105
2012-12-12,76,66,56,63,60,55,100,78,56,30.12,30.04,29.95,12,7,0,14,5,,0.00,2,Fog,95
2012-12-13,76,69,62,64,62,59,94,82,62,30.01,29.97,29.92,12,7,4,13,7,,0.00,4,Rain,178
2012-12-14,78,71,64,67,65,63,100,83,65,30.01,29.91,29.81,12,6,0,10,7,,0.00,4,Fog,143
2012-12-15,73,68,64,68,65,63,94,89,74,30.01,29.93,29.86,12,5,1,13,10,,0.03,6,Rain,199
2012-12-16,75,66,56,64,60,55,94,76,56,30.01,29.95,29.88,19,7,0,20,9,,0.00,2,Fog,102
2012-12-17,76,67,58,64,61,57,94,81,57,30.04,29.96,29.89,19,8,6,15,7,,0.00,2,,237
2012-12-18,79,70,60,65,62,59,94,78,57,30.04,29.93,29.83,19,8,6,16,7,,0.00,3,,103
2012-12-19,79,70,62,67,64,61,94,85,63,30.01,29.85,29.74,12,6,0,17,9,,0.02,6,Fog-Rain,244
2012-12-20,79,70,61,64,62,58,94,76,46,30.01,29.96,29.90,12,6,0,18,7,,0.00,3,Fog,125
2012-12-21,90,75,60,64,60,50,94,64,18,29.95,29.82,29.70,12,8,5,10,5,,0.00,1,,112
2012-12-22,82,74,65,66,63,59,88,73,52,29.98,29.82,29.73,12,8,6,15,7,,0.00,1,,230
2012-12-23,79,71,63,66,64,59,94,76,55,29.95,29.88,29.79,12,7,4,16,6,,0.01,2,Rain,103
2012-12-24,83,75,67,70,65,61,94,79,43,29.95,29.83,29.74,12,6,1,22,7,,0.16,5,Rain,307
2012-12-25,77,70,63,64,62,59,94,74,54,30.12,30.03,29.94,19,8,6,14,7,,0.00,4,,238
2012-12-26,78,70,62,67,65,61,95,79,60,30.09,29.93,29.74,12,7,3,20,7,,0.00,2,,93
2012-12-27,93,80,66,66,63,57,88,65,33,29.92,29.71,29.57,12,8,6,21,8,,0.00,5,,232
2012-12-28,78,70,63,59,56,53,77,62,40,29.93,29.87,29.80,12,8,6,12,7,,0.00,5,,193
2012-12-29,89,75,61,61,57,55,82,56,26,29.92,29.83,29.78,19,9,6,15,5,,0.00,1,,174
2012-12-30,73,69,62,64,61,55,88,73,58,30.04,29.95,29.92,19,7,5,10,5,,0.04,6,Rain,190
2012-12-31,68,62,57,61,57,54,94,81,60,30.09,30.03,29.98,12,6,3,12,7,,0.01,7,Rain,283